Time;durP1;ratioP1;P1;durP2;ratioP2;P2;SDS_P1;SDS_P2;PMS_P1;PMS_P2;Temp;Humidity;BMP_temperature;BMP_pressure;BME280_temperature;BME280_humidity;BME280_pressure;Samples;Min_cycle;Max_cycle;Signal;HPM_P1;HPM_P2
2022/08/19 00:00:48;;;;;;;;;27.00;27.00;;;;;20.10;67.10;100705.09;5077296;27;45215;-72
2022/08/19 00:03:13;;;;;;;;;24.50;24.50;;;;;20.08;67.81;100716.84;5076665;27;45185;-71
2022/08/19 00:05:41;;;;;;;;;22.75;22.75;;;;;20.04;68.02;100710.06;5076289;27;45498;-71
2022/08/19 00:08:06;;;;;;;;;30.00;28.25;;;;;19.99;68.09;100705.94;5076560;27;45429;-70
2022/08/19 00:10:33;;;;;;;;;27.25;27.25;;;;;19.98;67.96;100706.06;5076122;27;45374;-71
2022/08/19 00:12:59;;;;;;;;;27.00;27.00;;;;;19.95;67.78;100706.31;5076474;27;45325;-71
2022/08/19 00:15:25;;;;;;;;;21.00;21.00;;;;;19.94;67.53;100701.94;5074963;27;47443;-72
2022/08/19 00:17:50;;;;;;;;;19.50;19.50;;;;;19.91;67.73;100708.34;5076012;28;45312;-70
2022/08/19 00:20:20;;;;;;;;;23.75;22.25;;;;;19.90;67.59;100713.81;5076885;28;45210;-71
2022/08/19 00:22:47;;;;;;;;;21.75;21.75;;;;;19.87;67.54;100720.22;5076024;27;45500;-71
2022/08/19 00:25:14;;;;;;;;;19.75;19.75;;;;;19.84;67.43;100713.31;5076642;27;45417;-71
2022/08/19 00:27:40;;;;;;;;;21.00;21.00;;;;;19.84;67.66;100717.78;5075674;28;45444;-70
2022/08/19 00:30:09;;;;;;;;;18.50;18.50;;;;;19.84;67.91;100717.78;5074379;27;45298;-72
2022/08/19 00:32:35;;;;;;;;;20.25;20.25;;;;;19.83;67.70;100716.06;5075273;27;45593;-70
2022/08/19 00:35:01;;;;;;;;;16.75;16.75;;;;;19.82;67.46;100711.72;5075295;27;46658;-72
2022/08/19 00:37:27;;;;;;;;;20.50;20.50;;;;;19.77;67.61;100720.09;5073940;27;45349;-72
2022/08/19 00:39:53;;;;;;;;;20.75;20.75;;;;;19.77;67.28;100716.56;5075789;27;45353;-71
2022/08/19 00:42:20;;;;;;;;;18.50;18.50;;;;;19.75;67.42;100721.16;5076095;27;45557;-71
2022/08/19 00:44:46;;;;;;;;;18.50;18.50;;;;;19.70;67.40;100716.19;5075417;27;45570;-72
2022/08/19 00:47:12;;;;;;;;;19.50;19.50;;;;;19.66;67.45;100720.91;5075488;27;45191;-72
2022/08/19 00:49:50;;;;;;;;;17.50;17.50;;;;;19.67;67.98;100716.44;5076147;27;45349;-71
2022/08/19 00:52:20;;;;;;;;;14.50;14.50;;;;;19.66;67.92;100723.56;5075618;27;45408;-71
2022/08/19 00:54:48;;;;;;;;;17.75;17.75;;;;;19.63;67.51;100718.47;5075307;27;45539;-71
2022/08/19 00:57:18;;;;;;;;;17.50;17.50;;;;;19.62;67.61;100710.59;5075098;27;45524;-72
2022/08/19 00:59:47;;;;;;;;;19.25;18.75;;;;;19.63;67.37;100723.81;5075036;27;45453;-73
2022/08/19 01:02:14;;;;;;;;;17.25;17.25;;;;;19.61;67.63;100720.41;5075549;27;45539;-71
2022/08/19 01:04:39;;;;;;;;;15.75;15.75;;;;;19.58;67.55;100720.63;5075003;27;46239;-72
2022/08/19 01:07:05;;;;;;;;;19.50;19.50;;;;;19.53;67.49;100706.78;5073456;28;45318;-72
2022/08/19 01:09:31;;;;;;;;;17.00;17.00;;;;;19.53;68.01;100712.97;5075335;27;45377;-72
2022/08/19 01:11:57;;;;;;;;;16.50;16.00;;;;;19.55;67.45;100707.53;5075474;27;45362;-71
2022/08/19 01:14:23;;;;;;;;;18.50;18.50;;;;;19.52;67.72;100702.44;5074829;27;46304;-71
2022/08/19 01:16:49;;;;;;;;;17.75;17.75;;;;;19.52;67.71;100713.09;5075216;28;45415;-71
2022/08/19 01:19:29;;;;;;;;;18.75;18.75;;;;;19.51;68.27;100708.72;5075007;27;45326;-71
2022/08/19 01:22:05;;;;;;;;;17.75;17.75;;;;;19.49;68.07;100714.16;5075182;27;45329;-71
2022/08/19 01:24:31;;;;;;;;;18.25;18.25;;;;;19.48;68.40;100715.13;5074618;27;45353;-71
2022/08/19 01:26:57;;;;;;;;;19.50;19.50;;;;;19.47;68.25;100718.78;5074779;27;45404;-71
2022/08/19 01:29:23;;;;;;;;;18.00;18.00;;;;;19.44;68.44;100718.16;5075383;27;45333;-72
2022/08/19 01:31:51;;;;;;;;;19.00;19.00;;;;;19.41;68.30;100709.44;5075235;27;45595;-72
2022/08/19 01:34:17;;;;;;;;;18.25;18.25;;;;;19.42;68.73;100712.94;5075097;27;46724;-71
2022/08/19 01:36:48;;;;;;;;;17.75;17.75;;;;;19.42;68.29;100712.94;5075531;27;45291;-71
2022/08/19 01:39:19;;;;;;;;;15.75;15.75;;;;;19.37;68.60;100713.31;5075851;27;45452;-71
2022/08/19 01:41:44;;;;;;;;;16.75;16.75;;;;;19.37;68.49;100707.97;5074682;27;45570;-72
2022/08/19 01:44:11;;;;;;;;;15.50;15.50;;;;;19.35;68.29;100709.91;5072950;28;47215;-70
2022/08/19 01:46:37;;;;;;;;;16.00;16.00;;;;;19.34;68.84;100710.88;5074648;27;45335;-71
2022/08/19 01:49:05;;;;;;;;;16.50;16.50;;;;;19.33;68.68;100708.28;5074669;28;45341;-71
2022/08/19 01:51:31;;;;;;;;;15.75;15.75;;;;;19.32;68.71;100712.78;5074530;28;45497;-71
2022/08/19 01:53:57;;;;;;;;;18.75;18.75;;;;;19.31;68.57;100715.56;5074018;27;45527;-71
2022/08/19 01:56:24;;;;;;;;;20.75;20.75;;;;;19.29;68.32;100720.16;5072821;28;45273;-72
2022/08/19 01:58:57;;;;;;;;;16.00;16.00;;;;;19.27;68.71;100722.97;5072984;28;45342;-72
2022/08/19 02:01:23;;;;;;;;;17.00;17.00;;;;;19.24;68.64;100715.19;5074954;28;45494;-71
2022/08/19 02:03:48;;;;;;;;;19.50;18.75;;;;;19.25;68.90;100733.72;5074005;27;46211;-70
2022/08/19 02:06:16;;;;;;;;;18.75;18.75;;;;;19.22;68.85;100715.28;5074192;27;45366;-70
2022/08/19 02:08:42;;;;;;;;;16.00;16.00;;;;;19.22;68.90;100715.28;5074587;27;45472;-71
2022/08/19 02:11:08;;;;;;;;;20.00;20.00;;;;;19.21;68.72;100723.41;5074720;28;45461;-70
2022/08/19 02:13:34;;;;;;;;;16.00;16.00;;;;;19.16;68.62;100729.06;5073779;27;46527;-73
2022/08/19 02:15:59;;;;;;;;;20.25;20.25;;;;;19.17;69.38;100729.94;5074053;28;45407;-71
2022/08/19 02:18:26;;;;;;;;;17.50;17.50;;;;;19.14;69.03;100715.00;5073028;28;45335;-70
2022/08/19 02:20:52;;;;;;;;;20.00;20.00;;;;;19.10;69.22;100717.06;5073029;28;45512;-71
2022/08/19 02:23:17;;;;;;;;;19.50;19.50;;;;;19.09;69.57;100728.69;5073665;27;46161;-72
2022/08/19 02:25:45;;;;;;;;;20.50;20.50;;;;;19.08;69.96;100724.31;5073816;27;45385;-72
2022/08/19 02:28:11;;;;;;;;;20.25;20.25;;;;;19.05;70.15;100732.53;5073884;27;45528;-70
2022/08/19 02:30:38;;;;;;;;;19.50;19.50;;;;;19.02;69.80;100724.75;5074272;27;45825;-70
2022/08/19 02:33:04;;;;;;;;;21.25;21.25;;;;;18.97;70.06;100725.13;5073544;27;45487;-70
2022/08/19 02:35:31;;;;;;;;;25.50;23.75;;;;;18.97;70.43;100738.44;5073709;27;45451;-72
2022/08/19 02:40:49;;;;;;;;;22.50;22.50;;;;;19.01;70.58;100732.88;5073888;27;45231;-71
2022/08/19 02:43:15;;;;;;;;;21.50;21.50;;;;;19.05;70.58;100732.53;5073725;27;45594;-71
2022/08/19 02:45:40;;;;;;;;;20.25;20.25;;;;;19.10;70.77;100725.06;5073438;27;45227;-71
2022/08/19 02:48:07;;;;;;;;;25.75;25.00;;;;;19.16;70.44;100728.25;5073699;27;45377;-71
2022/08/19 02:50:32;;;;;;;;;21.25;21.25;;;;;19.18;70.26;100727.16;5073872;27;45260;-70
2022/08/19 02:52:58;;;;;;;;;20.50;20.50;;;;;19.19;70.46;100709.34;5072095;27;46590;-71
2022/08/19 02:55:23;;;;;;;;;20.50;20.50;;;;;19.22;70.49;100709.97;5077350;27;45220;-72
2022/08/19 02:57:49;;;;;;;;;17.75;17.75;;;;;19.32;70.36;100718.13;5077003;27;45334;-71
2022/08/19 03:00:15;;;;;;;;;19.50;19.50;;;;;19.38;70.22;100722.13;5077352;27;45176;-71
2022/08/19 03:02:41;;;;;;;;;19.00;19.00;;;;;19.41;69.47;100721.91;5075744;27;47230;-72
2022/08/19 03:05:09;;;;;;;;;18.75;18.75;;;;;19.46;69.93;100725.06;5077220;27;45262;-71
2022/08/19 03:07:35;;;;;;;;;23.00;23.00;;;;;19.47;69.25;100726.78;5075676;27;45392;-71
2022/08/19 03:10:01;;;;;;;;;21.00;19.75;;;;;19.45;69.55;100725.22;5077587;28;45556;-72
2022/08/19 03:12:26;;;;;;;;;19.00;19.00;;;;;19.41;70.05;100729.91;5077367;27;45288;-70
2022/08/19 03:14:52;;;;;;;;;21.00;20.50;;;;;19.36;69.64;100730.28;5076976;27;45246;-70
2022/08/19 03:17:18;;;;;;;;;19.50;19.50;;;;;19.35;70.17;100720.56;5076850;27;45243;-72
2022/08/19 03:19:44;;;;;;;;;13.75;13.75;;;;;19.31;70.58;100720.91;5077217;27;45303;-73
2022/08/19 03:22:09;;;;;;;;;22.00;22.00;;;;;19.28;70.55;100716.66;5076734;27;46938;-71
2022/08/19 03:24:35;;;;;;;;;17.25;17.25;;;;;19.29;70.45;100721.03;5076576;27;45247;-72
2022/08/19 03:27:02;;;;;;;;;18.00;18.00;;;;;19.30;71.18;100722.72;5076792;27;45369;-71
2022/08/19 03:29:31;;;;;;;;;16.25;15.00;;;;;19.25;71.17;100703.56;5077070;27;45610;-71
2022/08/19 03:32:02;;;;;;;;;18.50;18.50;;;;;19.35;70.63;100720.56;5075189;27;48274;-72
2022/08/19 03:34:30;;;;;;;;;13.25;13.25;;;;;19.37;70.93;100713.31;5076393;27;45313;-71
2022/08/19 03:37:00;;;;;;;;;16.50;15.50;;;;;19.44;70.73;100712.84;5077608;27;45419;-72
2022/08/19 03:39:27;;;;;;;;;17.25;17.25;;;;;19.43;70.61;100714.63;5077274;27;45460;-72
2022/08/19 03:41:56;;;;;;;;;11.00;11.00;;;;;19.46;69.91;100713.56;5076572;27;47414;-72
2022/08/19 03:44:22;;;;;;;;;15.50;15.50;;;;;19.49;69.80;100722.16;5076334;27;45384;-71
2022/08/19 03:46:55;;;;;;;;;11.00;11.00;;;;;19.50;69.86;100718.53;5076551;27;45438;-71
2022/08/19 03:49:23;;;;;;;;;13.75;13.00;;;;;19.51;70.05;100711.41;5076818;28;45881;-72
2022/08/19 03:51:50;;;;;;;;;12.25;12.25;;;;;19.57;69.66;100721.59;5074527;28;46205;-73
2022/08/19 03:54:18;;;;;;;;;13.00;13.00;;;;;19.61;69.49;100719.53;5076016;27;45511;-71
2022/08/19 03:56:45;;;;;;;;;8.50;8.50;;;;;19.63;69.59;100723.81;5076207;27;45412;-70
2022/08/19 03:59:15;;;;;;;;;10.00;10.00;;;;;19.64;69.61;100722.84;5076382;28;45584;-71
2022/08/19 04:01:40;;;;;;;;;13.25;13.25;;;;;19.68;69.33;100718.13;5074704;28;47355;-71
2022/08/19 04:04:06;;;;;;;;;9.00;9.00;;;;;19.69;68.96;100718.00;5076185;27;45377;-72
2022/08/19 04:06:34;;;;;;;;;8.75;8.75;;;;;19.73;69.16;100720.44;5075311;27;45318;-71
2022/08/19 04:09:02;;;;;;;;;10.00;10.00;;;;;19.70;68.92;100725.03;5076994;27;45266;-72
2022/08/19 04:11:41;;;;;;;;;7.00;7.00;;;;;19.64;69.43;100725.50;5076206;27;45842;-71
2022/08/19 04:14:08;;;;;;;;;11.75;11.25;;;;;19.63;69.53;100721.13;5075907;27;45464;-71
2022/08/19 04:16:33;;;;;;;;;10.00;10.00;;;;;19.60;69.82;100709.81;5075902;27;45365;-72
2022/08/19 04:19:01;;;;;;;;;7.50;7.50;;;;;19.60;70.02;100713.38;5076559;27;45697;-72
2022/08/19 04:21:27;;;;;;;;;7.50;7.50;;;;;19.59;69.78;100710.78;5077280;27;45372;-71
2022/08/19 04:23:54;;;;;;;;;8.75;8.75;;;;;19.59;69.72;100714.34;5076863;27;45365;-72
2022/08/19 04:26:25;;;;;;;;;7.75;7.75;;;;;19.58;70.06;100717.97;5076872;27;45367;-73
2022/08/19 04:28:51;;;;;;;;;10.00;10.00;;;;;19.58;69.75;100720.63;5076721;27;45382;-73
2022/08/19 04:31:19;;;;;;;;;9.25;9.00;;;;;19.57;69.99;100721.59;5075750;27;45339;-72
2022/08/19 04:33:45;;;;;;;;;9.75;9.75;;;;;19.56;70.02;100719.91;5075645;27;45469;-72
2022/08/19 04:36:37;;;;;;;;;7.75;7.75;;;;;19.55;69.66;100724.38;5075748;27;45520;-74
2022/08/19 04:39:06;;;;;;;;;8.50;8.50;;;;;19.56;69.90;100728.75;5075512;27;45229;-71
2022/08/19 04:44:18;;;;;;;;;8.25;8.25;;;;;19.55;70.33;100727.03;5075716;27;45458;-71
2022/08/19 04:46:47;;;;;;;;;7.50;7.50;;;;;19.57;70.20;100724.28;5075825;27;45458;-71
2022/08/19 04:49:13;;;;;;;;;7.00;7.00;;;;;19.58;70.70;100733.97;5076147;27;45513;-71
2022/08/19 04:51:42;;;;;;;;;9.00;9.00;;;;;19.59;70.87;100738.34;5074856;27;46286;-71
2022/08/19 04:54:07;;;;;;;;;7.25;7.25;;;;;19.59;70.54;100738.34;5075486;27;45424;-71
2022/08/19 04:56:33;;;;;;;;;8.25;8.25;;;;;19.61;70.96;100736.41;5076442;27;45402;-72
2022/08/19 04:59:02;;;;;;;;;8.00;8.00;;;;;19.66;71.23;100752.09;5076328;27;45613;-72
2022/08/19 05:01:29;;;;;;;;;5.50;5.50;;;;;19.65;71.29;100740.53;5075516;27;45423;-72
2022/08/19 05:03:56;;;;;;;;;5.50;5.50;;;;;19.70;71.13;100748.22;5075538;27;45228;-70
2022/08/19 05:06:22;;;;;;;;;6.00;6.00;;;;;19.70;70.91;100751.72;5075347;27;45371;-72
2022/08/19 05:08:48;;;;;;;;;6.50;6.00;;;;;19.78;70.62;100755.63;5075503;27;45248;-73
2022/08/19 05:11:16;;;;;;;;;6.75;6.75;;;;;19.80;71.09;100759.88;5075245;27;47012;-71
2022/08/19 05:13:43;;;;;;;;;6.75;6.75;;;;;19.84;70.50;100753.34;5075122;27;45243;-71
2022/08/19 05:16:10;;;;;;;;;5.00;5.00;;;;;19.89;70.75;100754.81;5074573;27;45275;-70
2022/08/19 05:24:09;;;;;;;;;3.50;3.50;;;;;19.98;70.05;100760.31;5074869;27;45777;-71
2022/08/19 05:26:39;;;;;;;;;4.50;4.50;;;;;19.98;70.19;100756.78;5075206;27;45314;-71
2022/08/19 05:29:07;;;;;;;;;6.00;6.00;;;;;20.02;70.00;100760.94;5076032;27;45558;-72
2022/08/19 05:31:33;;;;;;;;;4.50;4.50;;;;;20.08;69.48;100762.25;5075068;27;46140;-72
2022/08/19 05:33:58;;;;;;;;;4.00;4.00;;;;;20.08;69.79;100770.25;5074587;27;45389;-72
2022/08/19 05:36:28;;;;;;;;;5.25;5.25;;;;;20.10;69.97;100771.00;5074644;27;45390;-71
2022/08/19 05:38:54;;;;;;;;;4.00;4.00;;;;;20.09;69.94;100766.63;5074686;27;45361;-70
2022/08/19 05:41:30;;;;;;;;;4.75;4.75;;;;;20.09;69.60;100770.16;5074601;27;45449;-72
2022/08/19 05:43:56;;;;;;;;;5.25;5.25;;;;;20.11;69.57;100775.38;5074536;27;45456;-72
2022/08/19 05:46:22;;;;;;;;;6.00;6.00;;;;;20.10;69.45;100779.88;5074768;27;45419;-71
2022/08/19 05:48:48;;;;;;;;;5.75;5.75;;;;;20.11;69.44;100772.69;5075216;27;45646;-72
2022/08/19 05:51:14;;;;;;;;;5.00;5.00;;;;;20.09;69.78;100771.97;5072829;28;45498;-72
2022/08/19 05:53:39;;;;;;;;;2.25;2.25;;;;;20.06;69.97;100762.38;5075009;27;45396;-72
2022/08/19 05:56:07;;;;;;;;;4.00;4.00;;;;;20.04;69.95;100759.00;5075350;27;45386;-71
2022/08/19 05:58:33;;;;;;;;;5.00;5.00;;;;;20.00;70.68;100769.03;5073483;27;45706;-72
2022/08/19 06:01:04;;;;;;;;;5.50;5.50;;;;;19.92;70.43;100757.28;5074853;27;46268;-71
2022/08/19 06:03:30;;;;;;;;;4.75;4.75;;;;;19.96;70.65;100772.91;5074403;28;45415;-70
2022/08/19 06:05:56;;;;;;;;;5.00;5.00;;;;;19.90;70.76;100776.06;5074632;27;45391;-72
2022/08/19 06:08:22;;;;;;;;;6.75;6.75;;;;;19.91;70.71;100777.75;5074776;27;45465;-73
2022/08/19 06:10:47;;;;;;;;;5.00;5.00;;;;;19.93;71.03;100778.50;5074396;27;46682;-71
2022/08/19 06:13:12;;;;;;;;;4.25;4.25;;;;;19.91;70.90;100776.94;5074700;27;45312;-70
2022/08/19 06:15:38;;;;;;;;;5.75;5.75;;;;;19.99;70.46;100782.53;5074651;27;45277;-72
2022/08/19 06:18:03;;;;;;;;;7.00;7.00;;;;;20.00;70.64;100779.72;5075224;27;45180;-72
2022/08/19 06:20:29;;;;;;;;;5.00;5.00;;;;;20.00;70.40;100781.56;5074408;27;45422;-73
2022/08/19 06:22:54;;;;;;;;;4.75;4.75;;;;;20.03;70.44;100791.13;5073978;27;45393;-73
2022/08/19 06:25:20;;;;;;;;;5.00;5.00;;;;;20.03;70.80;100794.66;5074101;27;45266;-71
2022/08/19 06:27:45;;;;;;;;;7.25;7.25;;;;;20.04;70.38;100800.84;5073655;27;45275;-70
2022/08/19 06:30:12;;;;;;;;;6.75;6.75;;;;;20.08;70.46;100800.50;5073448;27;46537;-72
2022/08/19 06:32:37;;;;;;;;;6.00;6.00;;;;;20.13;70.65;100800.13;5074315;27;45334;-73
2022/08/19 06:35:04;;;;;;;;;6.00;6.00;;;;;20.15;69.98;100795.56;5074003;27;45247;-72
2022/08/19 06:37:29;;;;;;;;;5.25;5.25;;;;;20.16;70.23;100802.59;5074294;27;45366;-73
2022/08/19 06:39:54;;;;;;;;;5.25;5.25;;;;;20.18;70.24;100800.66;5073942;27;45316;-72
2022/08/19 06:42:20;;;;;;;;;6.00;6.00;;;;;20.18;70.01;100811.34;5074158;28;45491;-71
2022/08/19 06:44:48;;;;;;;;;3.25;3.25;;;;;20.19;70.28;100810.38;5073988;27;45223;-70
2022/08/19 06:47:17;;;;;;;;;3.00;3.00;;;;;20.16;70.56;100813.28;5074296;27;45554;-73
2022/08/19 06:49:43;;;;;;;;;4.00;4.00;;;;;20.12;70.78;100809.97;5073561;27;46423;-71
2022/08/19 06:52:11;;;;;;;;;3.75;3.75;;;;;20.10;71.02;100814.59;5072391;28;45419;-72
2022/08/19 06:54:37;;;;;;;;;4.50;4.50;;;;;20.12;70.81;100812.66;5074265;28;45512;-73
2022/08/19 06:57:04;;;;;;;;;3.00;3.00;;;;;20.17;70.61;100803.44;5072559;28;45356;-73
2022/08/19 06:59:32;;;;;;;;;2.75;2.75;;;;;20.25;70.51;100809.88;5073317;27;46054;-72
2022/08/19 07:02:00;;;;;;;;;2.00;2.00;;;;;20.35;70.34;100802.00;5073479;27;45295;-73
2022/08/19 07:04:28;;;;;;;;;1.50;1.50;;;;;20.46;69.94;100809.19;5073375;27;45846;-72
2022/08/19 07:06:59;;;;;;;;;2.00;2.00;;;;;20.58;69.55;100813.56;5073660;27;45234;-73
2022/08/19 07:09:25;;;;;;;;;2.00;2.00;;;;;20.65;69.23;100827.25;5071892;28;46395;-73
2022/08/19 07:11:52;;;;;;;;;1.00;1.00;;;;;20.61;69.27;100812.44;5073390;27;45640;-72
2022/08/19 07:14:20;;;;;;;;;1.00;1.00;;;;;20.64;69.16;100819.38;5073639;27;45356;-71
2022/08/19 07:16:49;;;;;;;;;2.50;2.50;;;;;20.70;68.99;100821.56;5073462;27;45475;-71
2022/08/19 07:19:15;;;;;;;;;2.50;2.50;;;;;20.81;68.66;100821.59;5073310;27;45320;-71
2022/08/19 07:21:41;;;;;;;;;1.75;1.75;;;;;20.84;68.33;100818.66;5074022;27;45360;-70
2022/08/19 07:24:06;;;;;;;;;3.25;3.25;;;;;20.92;68.03;100822.56;5073977;27;45917;-70
2022/08/19 07:26:38;;;;;;;;;3.00;3.00;;;;;20.93;67.93;100824.25;5073698;27;45225;-70
2022/08/19 07:29:05;;;;;;;;;3.00;3.00;;;;;20.87;68.17;100823.78;5073132;27;47334;-72
2022/08/19 07:31:36;;;;;;;;;4.00;4.00;;;;;20.85;68.03;100827.56;5073391;27;45296;-72
2022/08/19 07:34:03;;;;;;;;;2.75;2.75;;;;;20.88;67.93;100819.28;5073367;27;45317;-72
2022/08/19 07:36:32;;;;;;;;;2.25;2.25;;;;;20.93;67.68;100813.56;5073800;27;45386;-71
2022/08/19 07:39:00;;;;;;;;;4.50;4.50;;;;;20.93;67.76;100821.56;5073279;27;46110;-72
2022/08/19 07:41:31;;;;;;;;;3.75;3.75;;;;;20.94;67.91;100820.59;5077062;27;45386;-71
2022/08/19 07:43:58;;;;;;;;;3.75;3.75;;;;;20.93;68.14;100824.25;5075585;28;45297;-70
2022/08/19 07:46:23;;;;;;;;;2.00;2.00;;;;;20.94;67.92;100817.94;5077213;27;45760;-71
2022/08/19 07:48:51;;;;;;;;;3.00;3.00;;;;;20.95;67.99;100825.84;5075247;28;47191;-71
2022/08/19 07:51:19;;;;;;;;;1.75;1.75;;;;;20.94;67.96;100824.16;5077069;27;45322;-72
2022/08/19 07:53:45;;;;;;;;;2.75;2.75;;;;;20.96;68.11;100821.31;5076537;27;45253;-70
2022/08/19 07:56:13;;;;;;;;;4.25;4.25;;;;;20.95;68.30;100830.31;5076892;27;45175;-72
2022/08/19 07:58:41;;;;;;;;;3.50;3.50;;;;;20.95;67.99;100825.84;5076960;27;45351;-71
2022/08/19 08:01:09;;;;;;;;;8.75;8.75;;;;;20.95;68.11;100830.31;5076862;27;45446;-70
2022/08/19 08:09:10;;;;;;;;;4.75;4.75;;;;;21.08;68.45;100830.19;5076271;27;45353;-72
2022/08/19 08:11:41;;;;;;;;;2.00;2.00;;;;;21.16;68.12;100827.75;5075990;27;45383;-73
2022/08/19 08:14:08;;;;;;;;;1.00;1.00;;;;;21.25;67.73;100816.28;5076197;27;45251;-72
2022/08/19 08:16:36;;;;;;;;;0.00;0.00;;;;;21.34;67.55;100825.41;5076359;27;45723;-73
2022/08/19 08:19:03;;;;;;;;;4.00;4.00;;;;;21.43;67.22;100827.31;5075893;27;46235;-72
2022/08/19 08:21:28;;;;;;;;;2.00;2.00;;;;;21.51;66.80;100839.22;5075827;27;45481;-72
2022/08/19 08:23:55;;;;;;;;;4.00;4.00;;;;;21.53;66.87;100843.44;5076306;27;45350;-73
2022/08/19 08:26:20;;;;;;;;;2.75;2.75;;;;;21.59;66.44;100839.44;5074879;27;45334;-70
2022/08/19 08:28:47;;;;;;;;;2.25;2.25;;;;;21.67;66.60;100839.66;5075860;27;46220;-71
2022/08/19 08:31:13;;;;;;;;;2.75;2.75;;;;;21.81;66.34;100845.69;5076171;27;45347;-71
2022/08/19 08:33:41;;;;;;;;;2.00;2.00;;;;;21.94;66.07;100841.00;5076299;27;45580;-71
2022/08/19 08:36:08;;;;;;;;;3.00;3.00;;;;;22.06;65.34;100849.84;5076463;27;45283;-72
2022/08/19 08:38:34;;;;;;;;;4.00;4.00;;;;;22.12;65.06;100845.78;5076099;27;45761;-71
2022/08/19 08:41:18;;;;;;;;;5.00;5.00;;;;;22.13;64.80;100844.78;5074360;28;45419;-71
2022/08/19 08:43:46;;;;;;;;;3.00;3.00;;;;;22.14;64.34;100841.13;5076513;28;45511;-71
2022/08/19 08:46:17;;;;;;;;;2.00;2.00;;;;;22.26;64.26;100847.28;5076404;27;45509;-72
2022/08/19 08:48:57;;;;;;;;;2.00;2.00;;;;;22.33;64.36;100843.09;5075799;27;46489;-70
2022/08/19 08:51:33;;;;;;;;;3.00;3.00;;;;;22.42;63.99;100844.97;5074854;27;45139;-74
2022/08/19 08:54:00;;;;;;;;;2.25;2.25;;;;;22.50;63.41;100852.41;5075729;27;45256;-72
2022/08/19 08:56:25;;;;;;;;;2.00;2.00;;;;;22.53;63.40;100853.94;5076235;27;45782;-71
2022/08/19 08:59:07;;;;;;;;;4.50;3.50;;;;;22.56;63.37;100845.63;5075990;27;45589;-70
2022/08/19 09:01:33;;;;;;;;;2.00;2.00;;;;;22.59;63.21;100846.22;5075950;27;45265;-71
2022/08/19 09:03:58;;;;;;;;;2.00;2.00;;;;;22.68;62.88;100846.41;5075966;27;45294;-70
2022/08/19 09:06:54;;;;;;;;;2.25;2.25;;;;;22.77;62.74;100854.47;5075723;27;45182;-72
2022/08/19 09:09:44;;;;;;;;;1.75;1.75;;;;;22.81;62.51;100854.25;5074563;28;48125;-72
2022/08/19 09:12:26;;;;;;;;;3.00;3.00;;;;;22.90;62.65;100850.75;5075396;28;45463;-73
2022/08/19 09:15:07;;;;;;;;;2.00;2.00;;;;;22.94;62.20;100853.97;5057207;28;45422;-72
2022/08/19 09:17:38;;;;;;;;;3.50;3.50;;;;;22.99;62.00;100843.69;5075678;28;45261;-71
2022/08/19 09:20:24;;;;;;;;;4.00;4.00;;;;;23.09;61.94;100839.19;5075099;27;47202;-72
2022/08/19 09:22:50;;;;;;;;;2.50;2.50;;;;;23.18;61.37;100834.84;5075175;27;45379;-72
2022/08/19 09:25:21;;;;;;;;;2.50;2.50;;;;;23.27;61.02;100838.56;5075822;27;45449;-71
2022/08/19 09:27:48;;;;;;;;;3.00;3.00;;;;;23.33;61.02;100838.03;5075925;27;45303;-71
2022/08/19 09:30:17;;;;;;;;;3.00;3.00;;;;;23.46;60.51;100852.03;5075690;27;45302;-71
2022/08/19 09:32:43;;;;;;;;;1.75;1.75;;;;;23.57;60.12;100842.16;5075182;27;45425;-71
2022/08/19 09:35:10;;;;;;;;;2.00;2.00;;;;;23.60;59.88;100841.88;5075050;27;45241;-72
2022/08/19 09:37:36;;;;;;;;;3.00;3.00;;;;;23.65;60.07;100842.28;5074854;27;45627;-73
2022/08/19 09:40:02;;;;;;;;;7.00;7.00;;;;;23.70;59.47;100841.84;5074691;27;46557;-72
2022/08/19 09:42:27;;;;;;;;;2.50;2.50;;;;;23.80;59.38;100840.00;5074732;27;45300;-72
2022/08/19 09:44:53;;;;;;;;;6.25;6.25;;;;;23.92;59.71;100829.97;5073908;27;45378;-72
2022/08/19 09:47:18;;;;;;;;;3.75;3.75;;;;;24.14;59.13;100826.16;5075495;27;45410;-71
2022/08/19 09:49:43;;;;;;;;;3.75;3.75;;;;;24.40;58.84;100830.91;5074746;28;46595;-70
2022/08/19 09:52:10;;;;;;;;;4.25;4.25;;;;;24.60;58.61;100825.44;5074149;27;45444;-70
2022/08/19 09:54:36;;;;;;;;;1.75;1.75;;;;;24.86;58.05;100833.72;5074683;27;45339;-71
2022/08/19 09:57:02;;;;;;;;;5.00;5.00;;;;;24.98;57.00;100837.06;5074714;27;45590;-72
2022/08/19 09:59:28;;;;;;;;;3.75;3.75;;;;;24.98;56.82;100838.91;5074031;27;46420;-71
2022/08/19 10:01:54;;;;;;;;;3.00;2.00;;;;;24.89;56.78;100846.88;5074167;27;45813;-71
2022/08/19 10:05:47;;;;;;;;;3.50;3.50;;;;;24.71;56.47;100849.47;5073985;28;45219;-72
2022/08/19 10:07:08;;;;;;;;;3.25;3.25;;;;;24.53;56.56;100840.47;5074452;27;45420;-71
2022/08/19 10:09:34;;;;;;;;;2.00;2.00;;;;;24.43;56.83;100843.22;5073785;27;46208;-71
2022/08/19 10:12:01;;;;;;;;;4.25;4.25;;;;;24.35;56.90;100838.56;5074130;27;45404;-71
2022/08/19 10:14:27;;;;;;;;;10.75;10.75;;;;;24.35;57.36;100836.69;5073433;27;45355;-71
2022/08/19 10:16:53;;;;;;;;;2.50;2.50;;;;;24.43;57.58;100833.28;5072792;28;45408;-71
2022/08/19 10:19:20;;;;;;;;;4.25;4.25;;;;;24.55;56.68;100835.78;5074353;27;45361;-70
2022/08/19 10:21:45;;;;;;;;;3.00;3.00;;;;;24.68;56.69;100838.16;5073445;27;45462;-73
2022/08/19 10:24:10;;;;;;;;;0.75;0.75;;;;;24.72;56.37;100837.72;5074760;27;45669;-72
2022/08/19 10:26:41;;;;;;;;;4.50;4.50;;;;;24.84;56.55;100841.09;5074808;27;45291;-70
2022/08/19 10:29:06;;;;;;;;;2.25;2.25;;;;;24.94;56.32;100841.06;5073901;27;46531;-71
2022/08/19 10:31:34;;;;;;;;;4.00;4.00;;;;;25.10;56.39;100837.69;5074170;27;45338;-72
2022/08/19 10:34:00;;;;;;;;;3.00;3.00;;;;;25.29;55.99;100836.72;5074244;27;45385;-72
2022/08/19 10:36:32;;;;;;;;;8.75;8.75;;;;;25.49;55.49;100825.84;5074328;27;45452;-72
2022/08/19 10:39:07;;;;;;;;;4.00;4.00;;;;;25.68;55.42;100832.94;5073880;27;46525;-73
2022/08/19 10:41:36;;;;;;;;;2.75;2.75;;;;;25.80;55.26;100831.69;5074748;27;45242;-71
2022/08/19 10:44:05;;;;;;;;;2.25;2.25;;;;;25.96;54.26;100835.50;5074211;27;45399;-72
2022/08/19 10:46:33;;;;;;;;;0.75;0.75;;;;;26.16;54.31;100824.56;5074688;27;45227;-71
2022/08/19 10:49:01;;;;;;;;;3.00;3.00;;;;;26.41;53.91;100828.25;5074207;27;47325;-71
2022/08/19 10:54:10;;;;;;;;;3.25;3.25;;;;;26.72;52.79;100830.44;5073862;27;45235;-72
2022/08/19 10:56:51;;;;;;;;;5.75;5.75;;;;;26.72;53.02;100830.44;5073929;27;45662;-71
2022/08/19 10:59:18;;;;;;;;;3.25;3.25;;;;;26.73;52.58;100840.22;5073996;27;45731;-73
2022/08/19 11:01:45;;;;;;;;;5.00;5.00;;;;;26.65;52.71;100826.69;5073575;27;45293;-72
2022/08/19 11:04:13;;;;;;;;;3.00;3.00;;;;;26.57;52.70;100823.94;5073796;27;45420;-70
2022/08/19 11:06:41;;;;;;;;;3.25;3.25;;;;;26.50;52.33;100829.13;5074010;27;45350;-72
2022/08/19 11:09:07;;;;;;;;;2.00;2.00;;;;;26.31;52.88;100822.97;5073664;27;46079;-72
2022/08/19 11:11:40;;;;;;;;;3.00;3.00;;;;;26.19;52.58;100824.25;5073807;27;45460;-72
2022/08/19 11:14:09;;;;;;;;;2.25;2.25;;;;;26.16;52.84;100828.13;5073810;27;45406;-72
2022/08/19 11:16:41;;;;;;;;;2.00;2.00;;;;;26.12;52.78;100826.72;5077456;27;45277;-72
2022/08/19 11:19:08;;;;;;;;;7.50;7.50;;;;;26.16;53.21;100822.72;5077016;27;46340;-73
2022/08/19 11:21:40;;;;;;;;;2.00;2.00;;;;;26.24;52.60;100817.38;5077118;27;45170;-73
2022/08/19 11:24:11;;;;;;;;;5.00;5.00;;;;;26.21;52.79;100811.44;5078003;27;45366;-73
2022/08/19 11:26:39;;;;;;;;;3.25;3.25;;;;;26.16;52.73;100809.25;5079220;27;45449;-74
2022/08/19 11:29:06;;;;;;;;;4.25;4.25;;;;;26.08;53.28;100817.25;5078643;27;46109;-72
2022/08/19 11:31:35;;;;;;;;;3.25;3.25;;;;;25.98;53.26;100814.63;5078093;27;45347;-71
2022/08/19 11:34:03;;;;;;;;;2.50;2.50;;;;;25.87;53.40;100806.81;5077150;27;45453;-72
2022/08/19 11:36:31;;;;;;;;;2.00;2.00;;;;;25.75;53.38;100800.81;5077424;27;45634;-72
2022/08/19 11:38:56;;;;;;;;;3.50;3.50;;;;;25.60;53.66;100816.69;5076774;27;46607;-72
2022/08/19 11:41:23;;;;;;;;;2.00;2.00;;;;;25.48;53.92;100806.16;5076853;27;45222;-71